createdAt,value
2023-04-15T00:01:12.141Z,13.13
2023-04-15T00:03:41.424Z,13.32
2023-04-15T00:06:10.438Z,15.37
2023-04-15T00:08:39.761Z,16.89
2023-04-15T00:11:08.487Z,16.53
2023-04-15T00:13:37.794Z,15.46
2023-04-15T00:16:08.552Z,14.55
2023-04-15T00:18:38.221Z,13.87
2023-04-15T00:21:06.970Z,13.34
2023-04-15T00:23:36.849Z,13.39
2023-04-15T00:26:05.563Z,15.34
2023-04-15T00:28:34.315Z,16.84
2023-04-15T00:31:03.081Z,16.49
2023-04-15T00:33:31.900Z,15.42
2023-04-15T00:36:00.551Z,14.50
2023-04-15T00:38:29.766Z,13.81
2023-04-15T00:40:58.503Z,13.29
2023-04-15T00:43:27.753Z,12.87
2023-04-15T00:45:58.886Z,13.10
2023-04-15T00:48:28.270Z,15.16
2023-04-15T00:50:57.087Z,16.74
2023-04-15T00:53:25.833Z,16.63
2023-04-15T00:55:54.858Z,15.52
2023-04-15T00:58:24.126Z,14.50
2023-04-15T01:00:54.568Z,13.76
2023-04-15T01:03:23.769Z,13.19
2023-04-15T01:05:58.321Z,12.74
2023-04-15T01:08:31.822Z,12.98
2023-04-15T01:11:03.657Z,15.09
2023-04-15T01:13:34.491Z,16.62
2023-04-15T01:16:03.302Z,16.60
2023-04-15T01:18:32.854Z,15.47
2023-04-15T01:21:04.882Z,14.46
2023-04-15T01:23:39.203Z,13.69
2023-04-15T01:26:11.401Z,13.12
2023-04-15T01:28:40.150Z,12.68
2023-04-15T01:31:13.677Z,12.85
2023-04-15T01:33:43.237Z,14.97
2023-04-15T01:36:11.972Z,16.54
2023-04-15T01:38:41.078Z,16.20
2023-04-15T01:41:09.807Z,15.12
2023-04-15T01:43:38.489Z,14.17
2023-04-15T01:46:07.260Z,13.46
2023-04-15T01:48:36.014Z,13.38
2023-04-15T01:51:04.763Z,15.23
2023-04-15T01:53:34.359Z,16.81
2023-04-15T01:56:03.277Z,16.81
2023-04-15T01:58:32.028Z,15.65
2023-04-15T02:01:01.858Z,14.49
2023-04-15T02:03:30.757Z,13.66
2023-04-15T02:05:59.564Z,13.02
2023-04-15T02:08:28.717Z,13.09
2023-04-15T02:10:57.522Z,15.05
2023-04-15T02:13:26.218Z,16.61
2023-04-15T02:15:55.708Z,16.91
2023-04-15T02:18:24.378Z,15.79
2023-04-15T02:20:53.124Z,14.62
2023-04-15T02:23:21.746Z,13.75
2023-04-15T02:25:53.764Z,13.56
2023-04-15T02:28:22.956Z,15.36
2023-04-15T02:30:53.455Z,16.84
2023-04-15T02:33:22.532Z,16.85
2023-04-15T02:35:51.581Z,15.68
2023-04-15T02:38:20.392Z,14.58
2023-04-15T02:40:50.445Z,13.73
2023-04-15T02:43:19.153Z,13.60
2023-04-15T02:45:47.894Z,15.38
2023-04-15T02:48:19.050Z,16.88
2023-04-15T02:50:48.163Z,17.03
2023-04-15T02:53:17.583Z,15.88
2023-04-15T02:55:46.425Z,14.70
2023-04-15T02:58:15.190Z,13.78
2023-04-15T03:00:43.882Z,13.69
2023-04-15T03:03:15.279Z,15.48
2023-04-15T03:05:44.504Z,16.86
2023-04-15T03:08:14.821Z,17.26
2023-04-15T03:10:43.453Z,16.15
2023-04-15T03:13:12.174Z,14.92
2023-04-15T03:15:40.995Z,13.96
2023-04-15T03:18:09.692Z,13.75
2023-04-15T03:20:38.545Z,15.48
2023-04-15T03:23:07.402Z,16.92
2023-04-15T03:25:37.484Z,17.09
2023-04-15T03:28:06.312Z,15.89
2023-04-15T03:30:35.002Z,14.65
2023-04-15T03:33:03.812Z,13.79
2023-04-15T03:35:32.517Z,14.59
2023-04-15T03:38:01.466Z,16.28
2023-04-15T03:40:30.545Z,17.13
2023-04-15T03:42:59.221Z,16.43
2023-04-15T03:45:28.128Z,15.14
2023-04-15T03:48:00.612Z,14.08
2023-04-15T03:50:40.103Z,13.92
2023-04-15T03:53:08.776Z,15.63
2023-04-15T03:55:37.946Z,16.90
2023-04-15T03:58:06.646Z,17.08
2023-04-15T04:00:35.459Z,15.88
2023-04-15T04:03:04.334Z,14.67
2023-04-15T04:05:33.210Z,13.95
2023-04-15T04:08:01.853Z,15.22
2023-04-15T04:10:30.584Z,16.68
2023-04-15T04:12:59.282Z,17.09
2023-04-15T04:15:28.012Z,16.02
2023-04-15T04:17:57.121Z,14.74
2023-04-15T04:20:25.806Z,13.73
2023-04-15T04:22:54.490Z,14.16
2023-04-15T04:25:23.210Z,15.93
2023-04-15T04:27:51.876Z,17.03
2023-04-15T04:30:20.555Z,16.96
2023-04-15T04:32:50.998Z,15.70
2023-04-15T04:35:19.796Z,14.52
2023-04-15T04:37:48.518Z,14.06
2023-04-15T04:40:17.308Z,15.56
2023-04-15T04:42:46.030Z,16.86
2023-04-15T04:45:15.218Z,17.16
2023-04-15T04:47:43.992Z,16.01
2023-04-15T04:50:12.691Z,14.73
2023-04-15T04:52:43.418Z,13.88
2023-04-15T04:55:12.558Z,14.96
2023-04-15T04:57:41.507Z,16.52
2023-04-15T05:00:10.821Z,17.03
2023-04-15T05:02:39.677Z,16.10
2023-04-15T05:05:09.068Z,14.82
2023-04-15T05:07:39.568Z,13.80
2023-04-15T05:10:08.815Z,14.00
2023-04-15T05:12:38.617Z,15.76
2023-04-15T05:15:08.261Z,16.96
2023-04-15T05:17:37.025Z,17.19
2023-04-15T05:20:06.602Z,16.06
2023-04-15T05:22:35.376Z,14.77
2023-04-15T05:25:04.384Z,14.17
2023-04-15T05:27:33.158Z,15.56
2023-04-15T05:30:01.913Z,16.82
2023-04-15T05:32:31.255Z,17.29
2023-04-15T05:35:00.175Z,16.33
2023-04-15T05:37:28.869Z,15.05
2023-04-15T05:39:57.866Z,14.02
2023-04-15T05:42:26.529Z,14.34
2023-04-15T05:44:55.196Z,16.07
2023-04-15T05:47:24.057Z,17.13
2023-04-15T05:49:52.994Z,17.45
2023-04-15T05:52:22.044Z,16.39
2023-04-15T05:54:50.753Z,15.10
2023-04-15T05:57:19.472Z,14.07
2023-04-15T05:59:48.179Z,13.86
2023-04-15T06:02:17.688Z,15.60
2023-04-15T06:04:46.620Z,17.03
2023-04-15T06:07:15.603Z,17.41
2023-04-15T06:09:44.887Z,16.37
2023-04-15T06:12:13.902Z,15.08
2023-04-15T06:14:42.593Z,14.56
2023-04-15T06:17:11.463Z,16.03
2023-04-15T06:19:40.161Z,17.24
2023-04-15T06:22:10.048Z,17.69
2023-04-15T06:24:38.763Z,16.68
2023-04-15T06:27:07.514Z,15.40
2023-04-15T06:29:36.465Z,14.89
2023-04-15T06:32:05.368Z,16.31
2023-04-15T06:34:34.375Z,17.22
2023-04-15T06:37:04.465Z,17.21
2023-04-15T06:39:34.887Z,16.24
2023-04-15T06:42:03.719Z,15.02
2023-04-15T06:44:33.866Z,14.64
2023-04-15T06:47:03.486Z,16.24
2023-04-15T06:49:32.155Z,17.08
2023-04-15T06:52:01.645Z,17.76
2023-04-15T06:54:30.343Z,17.36
2023-04-15T06:56:59.032Z,16.00
2023-04-15T06:59:27.671Z,14.78
2023-04-15T07:01:56.741Z,14.47
2023-04-15T07:04:25.757Z,16.05
2023-04-15T07:06:55.637Z,17.35
2023-04-15T07:09:24.807Z,18.03
2023-04-15T07:11:53.506Z,17.42
2023-04-15T07:14:22.153Z,16.09
2023-04-15T07:16:50.983Z,15.06
2023-04-15T07:19:19.676Z,15.70
2023-04-15T07:21:48.358Z,16.84
2023-04-15T07:24:19.013Z,17.65
2023-04-15T07:26:47.699Z,17.96
2023-04-15T07:29:16.490Z,16.94
2023-04-15T07:31:45.183Z,15.65
2023-04-15T07:34:13.839Z,15.20
2023-04-15T07:36:43.173Z,16.64
2023-04-15T07:39:11.991Z,17.81
2023-04-15T07:41:40.802Z,18.33
2023-04-15T07:44:09.477Z,17.46
2023-04-15T07:46:38.779Z,16.10
2023-04-15T07:49:07.772Z,15.49
2023-04-15T07:51:37.386Z,16.88
2023-04-15T07:54:06.074Z,18.04
2023-04-15T07:56:34.704Z,18.45
2023-04-15T07:59:04.792Z,17.41
2023-04-15T08:01:33.651Z,16.12
2023-04-15T08:04:02.604Z,15.70
2023-04-15T08:06:31.544Z,17.10
2023-04-15T08:09:01.022Z,18.18
2023-04-15T08:11:29.920Z,18.53
2023-04-15T08:13:58.745Z,17.45
2023-04-15T08:16:30.116Z,16.16
2023-04-15T08:18:59.015Z,15.96
2023-04-15T08:21:30.807Z,17.37
2023-04-15T08:24:00.287Z,18.44
2023-04-15T08:26:29.001Z,18.49
2023-04-15T08:28:57.928Z,17.38
2023-04-15T08:31:29.890Z,16.08
2023-04-15T08:33:59.454Z,15.63
2023-04-15T08:36:28.528Z,17.02
2023-04-15T08:38:57.183Z,18.05
2023-04-15T08:41:27.442Z,18.10
2023-04-15T08:44:04.158Z,16.94
2023-04-15T08:46:34.977Z,15.85
2023-04-15T08:49:05.295Z,16.88
2023-04-15T08:51:34.466Z,17.62
2023-04-15T08:54:04.163Z,17.94
2023-04-15T08:56:33.310Z,17.22
2023-04-15T08:59:02.680Z,15.86
2023-04-15T09:01:32.646Z,14.66
2023-04-15T09:04:03.305Z,14.43
2023-04-15T09:06:31.994Z,15.95
2023-04-15T09:09:01.239Z,17.01
2023-04-15T09:11:31.515Z,17.41
2023-04-15T09:14:00.345Z,16.27
2023-04-15T09:16:29.105Z,15.01
2023-04-15T09:18:57.807Z,14.57
2023-04-15T09:21:26.572Z,16.07
2023-04-15T09:24:01.985Z,17.12
2023-04-15T09:26:33.482Z,17.54
2023-04-15T09:29:07.631Z,16.40
2023-04-15T09:31:37.690Z,15.12
2023-04-15T09:34:07.258Z,14.68
2023-04-15T09:36:54.420Z,16.21
2023-04-15T09:39:23.460Z,17.51
2023-04-15T09:42:05.904Z,17.05
2023-04-15T09:44:34.597Z,15.62
2023-04-15T09:47:03.299Z,15.11
2023-04-15T09:49:32.952Z,16.46
2023-04-15T09:52:06.018Z,17.31
2023-04-15T09:54:37.870Z,16.28
2023-04-15T09:57:10.724Z,15.11
2023-04-15T09:59:39.973Z,14.19
2023-04-15T10:02:09.264Z,14.16
2023-04-15T10:04:40.718Z,16.05
2023-04-15T10:07:11.705Z,17.42
2023-04-15T10:09:40.985Z,17.09
2023-04-15T10:12:10.378Z,16.00
2023-04-15T10:14:41.533Z,15.05
2023-04-15T10:17:15.360Z,14.79
2023-04-15T10:19:44.955Z,16.48
2023-04-15T10:22:15.487Z,17.75
2023-04-15T10:24:45.391Z,17.25
2023-04-15T10:27:14.246Z,16.07
2023-04-15T10:29:43.925Z,15.06
2023-04-15T10:32:13.888Z,15.20
2023-04-15T10:34:43.323Z,16.97
2023-04-15T10:37:12.050Z,18.04
2023-04-15T10:39:43.087Z,17.36
2023-04-15T10:42:20.148Z,16.22
2023-04-15T10:44:51.911Z,15.22
2023-04-15T10:47:22.104Z,15.10
2023-04-15T10:50:02.585Z,16.79
2023-04-15T10:52:31.416Z,18.25
2023-04-15T10:55:18.728Z,18.15
2023-04-15T10:57:52.459Z,16.81
2023-04-15T11:00:25.970Z,15.88
2023-04-15T11:02:57.163Z,15.70
2023-04-15T11:05:49.630Z,17.15
2023-04-15T11:08:18.630Z,18.49
2023-04-15T11:10:47.251Z,18.04
2023-04-15T11:13:18.161Z,16.83
2023-04-15T11:15:48.839Z,15.83
2023-04-15T11:18:35.956Z,16.17
2023-04-15T11:21:06.799Z,17.68
2023-04-15T11:23:38.873Z,17.05
2023-04-15T11:26:11.867Z,15.83
2023-04-15T11:28:45.273Z,14.93
2023-04-15T11:31:17.745Z,15.94
2023-04-15T11:34:01.574Z,17.53
2023-04-15T11:36:32.032Z,17.54
2023-04-15T11:39:00.945Z,16.34
2023-04-15T11:41:30.572Z,15.22
2023-04-15T11:43:59.300Z,14.44
2023-04-15T11:46:31.999Z,15.09
2023-04-15T11:49:01.654Z,16.91
2023-04-15T11:51:34.665Z,17.49
2023-04-15T11:54:03.850Z,16.78
2023-04-15T11:56:32.968Z,15.68
2023-04-15T11:59:02.173Z,14.81
2023-04-15T12:01:39.731Z,14.75
2023-04-15T12:04:17.736Z,16.64
2023-04-15T12:06:46.609Z,17.89
2023-04-15T12:09:16.794Z,17.30
2023-04-15T12:11:47.596Z,16.12
2023-04-15T12:14:29.346Z,15.09
2023-04-15T12:17:04.742Z,15.77
2023-04-15T12:19:37.636Z,17.31
2023-04-15T12:22:10.214Z,17.74
2023-04-15T12:24:39.837Z,16.75
2023-04-15T12:27:12.179Z,15.75
2023-04-15T12:29:43.167Z,14.99
2023-04-15T12:32:16.629Z,15.02
2023-04-15T12:34:50.938Z,16.93
2023-04-15T12:37:20.220Z,18.22
2023-04-15T12:39:50.479Z,17.62
2023-04-15T12:42:19.769Z,16.47
2023-04-15T12:44:48.426Z,15.52
2023-04-15T12:47:17.201Z,15.33
2023-04-15T12:49:45.981Z,16.99
2023-04-15T12:52:15.167Z,18.09
2023-04-15T12:54:43.807Z,17.51
2023-04-15T12:57:12.436Z,16.13
2023-04-15T12:59:41.115Z,15.06
2023-04-15T13:02:09.854Z,14.82
2023-04-15T13:04:38.795Z,16.26
2023-04-15T13:07:07.472Z,17.51
2023-04-15T13:09:36.742Z,17.47
2023-04-15T13:12:05.888Z,16.26
2023-04-15T13:14:34.542Z,15.23
2023-04-15T13:17:08.882Z,14.45
2023-04-15T13:19:38.947Z,14.37
2023-04-15T13:22:08.449Z,16.18
2023-04-15T13:24:37.432Z,17.64
2023-04-15T13:27:07.254Z,17.82
2023-04-15T13:29:35.935Z,16.77
2023-04-15T13:32:04.915Z,15.74
2023-04-15T13:34:33.668Z,14.98
2023-04-15T13:37:07.639Z,14.39
2023-04-15T13:39:36.548Z,14.64
2023-04-15T13:42:05.720Z,16.62
2023-04-15T13:44:35.114Z,17.97
2023-04-15T13:47:03.798Z,17.64
2023-04-15T13:49:32.607Z,16.55
2023-04-15T13:52:01.364Z,15.64
2023-04-15T13:54:37.684Z,15.51
2023-04-15T13:57:07.207Z,17.29
2023-04-15T13:59:35.918Z,18.46
2023-04-15T14:02:04.747Z,18.02
2023-04-15T14:04:33.888Z,16.89
2023-04-15T14:07:05.341Z,15.95
2023-04-15T14:09:35.539Z,15.80
2023-04-15T14:12:04.857Z,17.44
2023-04-15T14:14:33.632Z,18.60
2023-04-15T14:17:04.513Z,18.07
2023-04-15T14:19:33.822Z,16.95
2023-04-15T14:22:03.410Z,16.00
2023-04-15T14:24:32.326Z,15.88
2023-04-15T14:27:02.267Z,17.56
2023-04-15T14:29:31.217Z,18.89
2023-04-15T14:32:11.317Z,18.84
2023-04-15T14:34:41.807Z,17.60
2023-04-15T14:37:10.738Z,16.54
2023-04-15T14:39:39.854Z,16.24
2023-04-15T14:42:08.592Z,17.81
2023-04-15T14:44:37.702Z,19.06
2023-04-15T14:47:06.433Z,18.70
2023-04-15T14:49:35.378Z,17.52
2023-04-15T14:52:04.334Z,16.52
2023-04-15T14:54:33.040Z,16.30
2023-04-15T14:57:02.200Z,17.90
2023-04-15T14:59:30.973Z,19.07
2023-04-15T15:01:59.775Z,18.46
2023-04-15T15:04:29.343Z,17.26
2023-04-15T15:06:58.261Z,16.29
2023-04-15T15:09:27.282Z,16.59
2023-04-15T15:11:57.398Z,18.16
2023-04-15T15:14:26.688Z,18.87
2023-04-15T15:16:55.432Z,17.91
2023-04-15T15:19:25.003Z,16.74
2023-04-15T15:21:53.679Z,15.84
2023-04-15T15:24:22.337Z,15.78
2023-04-15T15:26:51.496Z,17.48
2023-04-15T15:29:20.184Z,18.76
2023-04-15T15:31:49.472Z,18.55
2023-04-15T15:34:18.186Z,17.42
2023-04-15T15:36:46.860Z,16.41
2023-04-15T15:39:15.985Z,16.13
2023-04-15T15:41:44.635Z,17.62
2023-04-15T15:44:13.295Z,18.77
2023-04-15T15:46:41.984Z,18.18
2023-04-15T15:49:11.501Z,16.83
2023-04-15T15:51:40.253Z,15.77
2023-04-15T15:54:08.954Z,15.55
2023-04-15T15:56:39.519Z,17.17
2023-04-15T15:59:08.247Z,18.29
2023-04-15T16:01:36.970Z,17.62
2023-04-15T16:04:05.936Z,16.53
2023-04-15T16:06:35.293Z,15.65
2023-04-15T16:09:04.529Z,15.57
2023-04-15T16:11:33.357Z,17.26
2023-04-15T16:14:02.319Z,18.56
2023-04-15T16:16:31.033Z,18.40
2023-04-15T16:18:59.844Z,17.17
2023-04-15T16:21:28.674Z,16.07
2023-04-15T16:23:57.658Z,15.81
2023-04-15T16:26:26.314Z,17.42
2023-04-15T16:28:54.977Z,18.73
2023-04-15T16:31:23.736Z,18.57
2023-04-15T16:33:52.516Z,17.38
2023-04-15T16:36:21.204Z,16.34
2023-04-15T16:38:49.956Z,16.07
2023-04-15T16:41:19.056Z,17.64
2023-04-15T16:43:47.743Z,18.89
2023-04-15T16:46:16.536Z,18.56
2023-04-15T16:48:45.275Z,17.39
2023-04-15T16:51:13.939Z,16.40
2023-04-15T16:53:42.613Z,16.15
2023-04-15T16:56:11.374Z,17.72
2023-04-15T16:58:40.141Z,18.96
2023-04-15T17:01:09.111Z,18.76
2023-04-15T17:03:38.933Z,17.52
2023-04-15T17:06:07.878Z,16.42
2023-04-15T17:08:36.590Z,16.09
2023-04-15T17:11:05.314Z,17.59
2023-04-15T17:13:34.087Z,18.86
2023-04-15T17:16:02.774Z,18.66
2023-04-15T17:18:31.521Z,17.42
2023-04-15T17:21:00.281Z,16.32
2023-04-15T17:23:29.014Z,16.00
2023-04-15T17:25:57.697Z,17.50
2023-04-15T17:28:26.373Z,18.72
2023-04-15T17:30:55.341Z,18.74
2023-04-15T17:33:55.708Z,17.52
2023-04-15T17:36:12.847Z,16.21
2023-04-15T17:38:41.828Z,15.87
2023-04-15T17:41:10.658Z,17.39
2023-04-15T17:43:39.385Z,18.60
2023-04-15T17:46:08.203Z,18.60
2023-04-15T17:48:36.889Z,17.39
2023-04-15T17:51:05.635Z,16.24
2023-04-15T17:53:34.290Z,15.82
2023-04-15T17:56:03.046Z,17.27
2023-04-15T17:58:31.705Z,18.47
2023-04-15T18:01:00.356Z,18.39
2023-04-15T18:03:29.185Z,17.18
2023-04-15T18:05:58.269Z,16.02
2023-04-15T18:08:27.721Z,15.65
2023-04-15T18:10:56.488Z,17.17
2023-04-15T18:13:25.210Z,18.38
2023-04-15T18:15:55.526Z,18.07
2023-04-15T18:18:24.204Z,16.83
2023-04-15T18:20:52.871Z,15.74
2023-04-15T18:23:21.666Z,15.43
2023-04-15T18:25:50.395Z,17.02
2023-04-15T18:28:19.094Z,18.29
2023-04-15T18:30:47.766Z,18.20
2023-04-15T18:33:16.411Z,17.00
2023-04-15T18:35:45.244Z,15.89
2023-04-15T18:38:13.960Z,15.47
2023-04-15T18:40:42.630Z,16.90
2023-04-15T18:43:11.346Z,18.15
2023-04-15T18:45:40.137Z,18.30
2023-04-15T18:48:08.852Z,17.19
2023-04-15T18:50:37.616Z,16.05
2023-04-15T18:53:06.291Z,15.16
2023-04-15T18:55:35.638Z,15.11
2023-04-15T18:58:09.213Z,16.79
2023-04-15T19:00:41.727Z,18.08
2023-04-15T19:03:11.562Z,18.33
2023-04-15T19:05:41.234Z,17.19
2023-04-15T19:08:10.772Z,15.96
2023-04-15T19:10:39.530Z,14.99
2023-04-15T19:13:08.250Z,14.91
2023-04-15T19:15:36.928Z,16.57
2023-04-15T19:18:10.442Z,17.88
2023-04-15T19:20:40.009Z,18.31
2023-04-15T19:23:11.232Z,17.29
2023-04-15T19:25:39.942Z,16.11
2023-04-15T19:28:08.602Z,15.21
2023-04-15T19:30:37.317Z,15.08
2023-04-15T19:33:06.123Z,16.73
2023-04-15T19:35:34.806Z,18.00
2023-04-15T19:38:03.585Z,18.12
2023-04-15T19:40:32.231Z,16.95
2023-04-15T19:43:01.069Z,15.75
2023-04-15T19:45:31.294Z,14.82
2023-04-15T19:48:00.459Z,14.75
2023-04-15T19:50:29.151Z,16.35
2023-04-15T19:52:57.793Z,17.48
2023-04-15T19:55:26.461Z,18.10
2023-04-15T19:57:55.428Z,17.62
2023-04-15T20:00:24.128Z,16.29
2023-04-15T20:02:53.287Z,15.18
2023-04-15T20:05:22.204Z,14.95
2023-04-15T20:07:52.970Z,16.66
2023-04-15T20:10:22.503Z,17.93
2023-04-15T20:12:53.054Z,17.91
2023-04-15T20:15:23.884Z,16.69
2023-04-15T20:17:52.970Z,15.56
2023-04-15T20:20:22.336Z,14.69
2023-04-15T20:22:52.762Z,14.69
2023-04-15T20:25:21.432Z,16.47
2023-04-15T20:27:50.548Z,17.73
2023-04-15T20:30:19.196Z,17.56
2023-04-15T20:32:48.048Z,16.35
2023-04-15T20:35:16.771Z,15.24
2023-04-15T20:37:45.595Z,14.42
2023-04-15T20:40:14.796Z,14.94
2023-04-15T20:42:43.707Z,16.74
2023-04-15T20:45:12.382Z,17.78
2023-04-15T20:47:41.572Z,17.18
2023-04-15T20:50:11.300Z,15.94
2023-04-15T20:52:40.069Z,14.93
2023-04-15T20:55:09.018Z,14.71
2023-04-15T20:57:37.662Z,16.39
2023-04-15T21:00:09.354Z,17.66
2023-04-15T21:02:38.448Z,17.25
2023-04-15T21:05:08.013Z,16.04
2023-04-15T21:07:36.743Z,15.01
2023-04-15T21:10:05.842Z,14.74
2023-04-15T21:12:34.600Z,16.40
2023-04-15T21:15:03.917Z,17.67
2023-04-15T21:17:35.231Z,17.35
2023-04-15T21:20:04.202Z,16.06
2023-04-15T21:22:33.161Z,14.92
2023-04-15T21:25:01.785Z,14.08
2023-04-15T21:27:30.560Z,14.31
2023-04-15T21:29:59.207Z,16.09
2023-04-15T21:32:27.977Z,17.32
2023-04-15T21:34:56.786Z,17.73
2023-04-15T21:37:25.759Z,16.70
2023-04-15T21:39:54.486Z,15.42
2023-04-15T21:42:23.351Z,14.43
2023-04-15T21:44:52.000Z,14.32
2023-04-15T21:47:20.745Z,16.05
2023-04-15T21:49:50.753Z,17.36
2023-04-15T21:52:19.381Z,17.46
2023-04-15T21:54:48.006Z,16.30
2023-04-15T21:57:17.092Z,15.16
2023-04-15T21:59:45.769Z,14.25
2023-04-15T22:02:14.429Z,14.11
2023-04-15T22:04:43.249Z,15.85
2023-04-15T22:07:11.895Z,17.23
2023-04-15T22:09:40.631Z,17.23
2023-04-15T22:12:09.300Z,16.01
2023-04-15T22:14:38.158Z,14.85
2023-04-15T22:17:06.876Z,13.99
2023-04-15T22:19:35.646Z,13.96
2023-04-15T22:22:04.301Z,15.73
2023-04-15T22:24:39.960Z,17.02
2023-04-15T22:27:09.609Z,16.72
2023-04-15T22:29:38.284Z,15.47
2023-04-15T22:32:07.471Z,14.39
2023-04-15T22:34:36.308Z,13.55
2023-04-15T22:37:05.048Z,13.50
2023-04-15T22:39:33.710Z,15.32
2023-04-15T22:42:02.397Z,16.74
2023-04-15T22:44:31.218Z,16.78
2023-04-15T22:46:59.994Z,15.55
2023-04-15T22:49:28.765Z,14.38
2023-04-15T22:51:57.455Z,13.53
2023-04-15T22:54:26.192Z,13.54
2023-04-15T22:56:54.830Z,15.35
2023-04-15T22:59:23.698Z,16.71
2023-04-15T23:01:53.394Z,16.65
2023-04-15T23:04:25.172Z,15.45
2023-04-15T23:06:56.877Z,14.27
2023-04-15T23:09:25.582Z,13.44
2023-04-15T23:11:56.230Z,14.17
2023-04-15T23:14:26.204Z,15.99
2023-04-15T23:16:56.727Z,16.90
2023-04-15T23:19:25.475Z,16.12
2023-04-15T23:21:54.169Z,14.90
2023-04-15T23:24:22.936Z,13.92
2023-04-15T23:26:53.067Z,13.77
2023-04-15T23:29:21.722Z,15.52
2023-04-15T23:31:50.699Z,16.84
2023-04-15T23:34:19.449Z,16.51
2023-04-15T23:36:48.492Z,15.21
2023-04-15T23:39:17.184Z,14.11
2023-04-15T23:41:45.898Z,13.29
2023-04-15T23:44:14.549Z,13.33
2023-04-15T23:46:43.250Z,15.18
2023-04-15T23:49:12.081Z,16.63
2023-04-15T23:51:41.132Z,16.76
2023-04-15T23:54:09.760Z,15.55
2023-04-15T23:56:38.418Z,14.36
2023-04-15T23:59:07.177Z,13.46
